sensor_id;sensor_type;location;lat;lon;timestamp;pressure;altitude;pressure_sealevel;temperature;humidity
43217;BME280;60511;42.686;23.300;2023-06-10T00:00:52;94351.06;;;25.71;41.76
43217;BME280;60511;42.686;23.300;2023-06-10T00:02:53;94359.59;;;25.73;41.78
43217;BME280;60511;42.686;23.300;2023-06-10T00:04:53;94352.56;;;25.68;41.72
43217;BME280;60511;42.686;23.300;2023-06-10T00:06:54;94362.22;;;25.65;41.93
43217;BME280;60511;42.686;23.300;2023-06-10T00:08:54;94355.22;;;25.61;41.75
43217;BME280;60511;42.686;23.300;2023-06-10T00:10:55;94351.38;;;25.65;41.67
43217;BME280;60511;42.686;23.300;2023-06-10T00:12:55;94349.84;;;25.68;41.73
43217;BME280;60511;42.686;23.300;2023-06-10T00:14:56;94348.78;;;25.76;41.39
43217;BME280;60511;42.686;23.300;2023-06-10T00:16:56;94350.75;;;25.79;41.34
43217;BME280;60511;42.686;23.300;2023-06-10T00:18:59;94349.97;;;25.79;41.14
43217;BME280;60511;42.686;23.300;2023-06-10T00:21:02;94356.13;;;25.76;41.49
43217;BME280;60511;42.686;23.300;2023-06-10T00:23:04;94350.72;;;25.76;41.54
43217;BME280;60511;42.686;23.300;2023-06-10T00:25:06;94351.84;;;25.71;41.49
43217;BME280;60511;42.686;23.300;2023-06-10T00:27:07;94353.41;;;25.76;40.98
43217;BME280;60511;42.686;23.300;2023-06-10T00:29:07;94341.72;;;25.64;41.82
43217;BME280;60511;42.686;23.300;2023-06-10T00:31:08;94352.56;;;25.64;41.95
43217;BME280;60511;42.686;23.300;2023-06-10T00:33:08;94356.81;;;25.65;41.87
43217;BME280;60511;42.686;23.300;2023-06-10T00:35:08;94355.69;;;25.70;41.38
43217;BME280;60511;42.686;23.300;2023-06-10T00:37:09;94354.94;;;25.73;41.42
43217;BME280;60511;42.686;23.300;2023-06-10T00:39:09;94349.94;;;25.75;41.01
43217;BME280;60511;42.686;23.300;2023-06-10T00:41:09;94346.03;;;25.73;40.83
43217;BME280;60511;42.686;23.300;2023-06-10T00:43:10;94350.31;;;25.74;40.94
43217;BME280;60511;42.686;23.300;2023-06-10T00:45:10;94348.78;;;25.76;41.50
43217;BME280;60511;42.686;23.300;2023-06-10T00:47:11;94343.69;;;25.71;41.59
43217;BME280;60511;42.686;23.300;2023-06-10T00:49:11;94342.97;;;25.78;41.61
43217;BME280;60511;42.686;23.300;2023-06-10T00:51:12;94348.00;;;25.76;41.57
43217;BME280;60511;42.686;23.300;2023-06-10T00:53:13;94343.75;;;25.78;41.44
43217;BME280;60511;42.686;23.300;2023-06-10T00:55:14;94347.63;;;25.77;41.32
43217;BME280;60511;42.686;23.300;2023-06-10T00:57:15;94347.66;;;25.84;40.92
43217;BME280;60511;42.686;23.300;2023-06-10T00:59:16;94347.25;;;25.79;41.44
43217;BME280;60511;42.686;23.300;2023-06-10T01:01:16;94350.38;;;25.81;41.14
43217;BME280;60511;42.686;23.300;2023-06-10T01:03:16;94355.00;;;25.80;41.17
43217;BME280;60511;42.686;23.300;2023-06-10T01:05:17;94355.00;;;25.80;41.41
43217;BME280;60511;42.686;23.300;2023-06-10T01:07:38;94355.81;;;25.84;40.56
43217;BME280;60511;42.686;23.300;2023-06-10T01:09:42;94361.59;;;25.79;41.01
43217;BME280;60511;42.686;23.300;2023-06-10T01:11:51;94358.47;;;25.77;41.35
43217;BME280;60511;42.686;23.300;2023-06-10T01:13:53;94358.47;;;25.77;41.49
43217;BME280;60511;42.686;23.300;2023-06-10T01:15:55;94362.34;;;25.80;40.83
43217;BME280;60511;42.686;23.300;2023-06-10T01:18:03;94366.59;;;25.77;41.49
43217;BME280;60511;42.686;23.300;2023-06-10T01:20:04;94370.44;;;25.73;42.03
43217;BME280;60511;42.686;23.300;2023-06-10T01:22:06;94364.22;;;25.69;42.50
43217;BME280;60511;42.686;23.300;2023-06-10T01:24:07;94363.00;;;25.66;42.47
43217;BME280;60511;42.686;23.300;2023-06-10T01:26:09;94354.13;;;25.69;42.26
43217;BME280;60511;42.686;23.300;2023-06-10T01:28:12;94363.03;;;25.70;42.19
43217;BME280;60511;42.686;23.300;2023-06-10T01:30:17;94354.19;;;25.73;42.10
43217;BME280;60511;42.686;23.300;2023-06-10T01:32:42;94350.66;;;25.69;42.34
43217;BME280;60511;42.686;23.300;2023-06-10T01:34:42;94360.25;;;25.59;42.58
43217;BME280;60511;42.686;23.300;2023-06-10T01:36:46;94353.72;;;25.67;42.12
43217;BME280;60511;42.686;23.300;2023-06-10T01:38:47;94357.63;;;25.70;42.35
43217;BME280;60511;42.686;23.300;2023-06-10T01:40:49;94356.50;;;25.74;41.51
43217;BME280;60511;42.686;23.300;2023-06-10T01:42:52;94353.38;;;25.72;41.65
43217;BME280;60511;42.686;23.300;2023-06-10T01:44:52;94351.47;;;25.73;41.71
43217;BME280;60511;42.686;23.300;2023-06-10T01:46:52;94351.06;;;25.74;41.60
43217;BME280;60511;42.686;23.300;2023-06-10T01:48:53;94345.25;;;25.69;42.04
43217;BME280;60511;42.686;23.300;2023-06-10T01:50:53;94354.94;;;25.73;41.21
43217;BME280;60511;42.686;23.300;2023-06-10T01:52:56;94346.47;;;25.78;41.25
43217;BME280;60511;42.686;23.300;2023-06-10T01:54:57;94346.84;;;25.77;41.15
43217;BME280;60511;42.686;23.300;2023-06-10T01:56:57;94335.22;;;25.76;41.35
43217;BME280;60511;42.686;23.300;2023-06-10T01:58:57;94329.38;;;25.74;41.63
43217;BME280;60511;42.686;23.300;2023-06-10T02:00:59;94332.09;;;25.74;42.04
43217;BME280;60511;42.686;23.300;2023-06-10T02:02:59;94327.09;;;25.76;41.73
43217;BME280;60511;42.686;23.300;2023-06-10T02:04:59;94330.97;;;25.75;41.84
43217;BME280;60511;42.686;23.300;2023-06-10T02:07:00;94328.28;;;25.79;41.60
43217;BME280;60511;42.686;23.300;2023-06-10T02:09:03;94329.38;;;25.74;41.86
43217;BME280;60511;42.686;23.300;2023-06-10T02:11:04;94327.88;;;25.77;41.62
43217;BME280;60511;42.686;23.300;2023-06-10T02:13:04;94329.78;;;25.76;41.80
43217;BME280;60511;42.686;23.300;2023-06-10T02:15:05;94324.41;;;25.80;41.59
43217;BME280;60511;42.686;23.300;2023-06-10T02:17:05;94325.94;;;25.77;41.72
43217;BME280;60511;42.686;23.300;2023-06-10T02:19:05;94322.88;;;25.79;41.70
43217;BME280;60511;42.686;23.300;2023-06-10T02:21:06;94322.06;;;25.75;42.02
43217;BME280;60511;42.686;23.300;2023-06-10T02:23:07;94321.28;;;25.78;41.56
43217;BME280;60511;42.686;23.300;2023-06-10T02:25:07;94322.47;;;25.80;41.60
43217;BME280;60511;42.686;23.300;2023-06-10T02:27:08;94323.28;;;25.81;41.61
43217;BME280;60511;42.686;23.300;2023-06-10T02:29:08;94317.84;;;25.84;41.43
43217;BME280;60511;42.686;23.300;2023-06-10T02:31:08;94317.84;;;25.81;41.37
43217;BME280;60511;42.686;23.300;2023-06-10T02:33:09;94315.09;;;25.77;41.29
43217;BME280;60511;42.686;23.300;2023-06-10T02:35:11;94315.50;;;25.79;41.07
43217;BME280;60511;42.686;23.300;2023-06-10T02:37:12;94308.53;;;25.82;40.57
43217;BME280;60511;42.686;23.300;2023-06-10T02:39:12;94318.66;;;25.85;40.95
43217;BME280;60511;42.686;23.300;2023-06-10T02:41:13;94311.25;;;25.82;40.97
43217;BME280;60511;42.686;23.300;2023-06-10T02:43:13;94305.84;;;25.82;41.32
43217;BME280;60511;42.686;23.300;2023-06-10T02:45:13;94306.19;;;25.80;41.31
43217;BME280;60511;42.686;23.300;2023-06-10T02:47:14;94303.53;;;25.84;41.02
43217;BME280;60511;42.686;23.300;2023-06-10T02:49:14;94304.28;;;25.81;41.45
43217;BME280;60511;42.686;23.300;2023-06-10T02:51:15;94305.47;;;25.83;41.35
43217;BME280;60511;42.686;23.300;2023-06-10T02:53:16;94298.88;;;25.84;41.07
43217;BME280;60511;42.686;23.300;2023-06-10T02:55:16;94310.13;;;25.86;41.00
43217;BME280;60511;42.686;23.300;2023-06-10T02:57:16;94299.63;;;25.81;41.31
43217;BME280;60511;42.686;23.300;2023-06-10T02:59:17;94306.63;;;25.86;41.14
43217;BME280;60511;42.686;23.300;2023-06-10T03:01:17;94306.28;;;25.88;40.87
43217;BME280;60511;42.686;23.300;2023-06-10T03:03:18;94301.63;;;25.88;41.03
43217;BME280;60511;42.686;23.300;2023-06-10T03:05:20;94305.88;;;25.85;41.18
43217;BME280;60511;42.686;23.300;2023-06-10T03:07:21;94308.56;;;25.85;40.84
43217;BME280;60511;42.686;23.300;2023-06-10T03:09:21;94307.41;;;25.86;40.49
43217;BME280;60511;42.686;23.300;2023-06-10T03:11:21;94307.81;;;25.85;41.31
43217;BME280;60511;42.686;23.300;2023-06-10T03:13:23;94318.66;;;25.89;40.96
43217;BME280;60511;42.686;23.300;2023-06-10T03:15:23;94315.53;;;25.83;41.51
43217;BME280;60511;42.686;23.300;2023-06-10T03:17:24;94311.94;;;25.72;42.60
43217;BME280;60511;42.686;23.300;2023-06-10T03:19:25;94318.13;;;25.72;42.83
43217;BME280;60511;42.686;23.300;2023-06-10T03:21:26;94317.69;;;25.63;43.04
43217;BME280;60511;42.686;23.300;2023-06-10T03:23:27;94323.31;;;25.43;43.71
43217;BME280;60511;42.686;23.300;2023-06-10T03:25:27;94329.94;;;25.46;43.76
43217;BME280;60511;42.686;23.300;2023-06-10T03:27:28;94327.91;;;25.39;44.25
43217;BME280;60511;42.686;23.300;2023-06-10T03:29:30;94329.44;;;25.37;44.38
43217;BME280;60511;42.686;23.300;2023-06-10T03:31:30;94333.88;;;25.18;44.70
43217;BME280;60511;42.686;23.300;2023-06-10T03:33:31;94334.94;;;25.10;44.95
43217;BME280;60511;42.686;23.300;2023-06-10T03:35:31;94331.94;;;25.19;44.90
43217;BME280;60511;42.686;23.300;2023-06-10T03:37:35;94338.06;;;25.12;44.86
43217;BME280;60511;42.686;23.300;2023-06-10T03:39:35;94334.22;;;25.13;45.02
43217;BME280;60511;42.686;23.300;2023-06-10T03:41:35;94333.94;;;25.22;44.60
43217;BME280;60511;42.686;23.300;2023-06-10T03:43:37;94340.22;;;25.30;44.60
43217;BME280;60511;42.686;23.300;2023-06-10T03:45:38;94342.53;;;25.31;44.96
43217;BME280;60511;42.686;23.300;2023-06-10T03:47:40;94332.13;;;25.33;45.10
43217;BME280;60511;42.686;23.300;2023-06-10T03:49:40;94339.09;;;25.34;44.91
43217;BME280;60511;42.686;23.300;2023-06-10T03:51:41;94337.47;;;25.26;44.96
43217;BME280;60511;42.686;23.300;2023-06-10T03:53:41;94332.41;;;25.24;45.13
43217;BME280;60511;42.686;23.300;2023-06-10T03:55:41;94325.47;;;25.27;44.94
43217;BME280;60511;42.686;23.300;2023-06-10T03:57:42;94332.06;;;25.26;44.82
43217;BME280;60511;42.686;23.300;2023-06-10T03:59:42;94329.22;;;25.19;45.01
43217;BME280;60511;42.686;23.300;2023-06-10T04:01:42;94331.16;;;25.18;44.97
43217;BME280;60511;42.686;23.300;2023-06-10T04:03:43;94331.88;;;25.12;45.46
43217;BME280;60511;42.686;23.300;2023-06-10T04:05:44;94332.69;;;25.16;45.44
43217;BME280;60511;42.686;23.300;2023-06-10T04:07:44;94334.34;;;25.24;44.94
43217;BME280;60511;42.686;23.300;2023-06-10T04:09:45;94334.41;;;25.31;45.05
43217;BME280;60511;42.686;23.300;2023-06-10T04:11:46;94334.81;;;25.33;44.77
43217;BME280;60511;42.686;23.300;2023-06-10T04:13:48;94339.56;;;25.40;45.08
43217;BME280;60511;42.686;23.300;2023-06-10T04:15:48;94336.09;;;25.43;44.70
43217;BME280;60511;42.686;23.300;2023-06-10T04:17:49;94335.75;;;25.48;44.27
43217;BME280;60511;42.686;23.300;2023-06-10T04:19:49;94339.59;;;25.47;44.09
43217;BME280;60511;42.686;23.300;2023-06-10T04:21:50;94345.38;;;25.45;44.13
43217;BME280;60511;42.686;23.300;2023-06-10T04:23:50;94351.19;;;25.44;44.54
43217;BME280;60511;42.686;23.300;2023-06-10T04:25:51;94348.78;;;25.35;44.68
43217;BME280;60511;42.686;23.300;2023-06-10T04:27:51;94341.63;;;25.20;44.99
43217;BME280;60511;42.686;23.300;2023-06-10T04:29:52;94337.06;;;25.24;44.96
43217;BME280;60511;42.686;23.300;2023-06-10T04:31:52;94334.75;;;25.26;44.54
43217;BME280;60511;42.686;23.300;2023-06-10T04:33:54;94334.41;;;25.31;44.98
43217;BME280;60511;42.686;23.300;2023-06-10T04:35:54;94337.53;;;25.33;44.99
43217;BME280;60511;42.686;23.300;2023-06-10T04:37:54;94339.16;;;25.41;44.23
43217;BME280;60511;42.686;23.300;2023-06-10T04:39:55;94342.31;;;25.47;44.60
43217;BME280;60511;42.686;23.300;2023-06-10T04:41:55;94336.56;;;25.52;43.61
43217;BME280;60511;42.686;23.300;2023-06-10T04:43:56;94340.47;;;25.55;43.44
43217;BME280;60511;42.686;23.300;2023-06-10T04:45:56;94339.28;;;25.56;44.51
43217;BME280;60511;42.686;23.300;2023-06-10T04:47:56;94332.69;;;25.53;44.68
43217;BME280;60511;42.686;23.300;2023-06-10T04:49:58;94338.88;;;25.50;44.78
43217;BME280;60511;42.686;23.300;2023-06-10T04:51:58;94344.69;;;25.52;44.65
43217;BME280;60511;42.686;23.300;2023-06-10T04:53:59;94341.19;;;25.52;44.38
43217;BME280;60511;42.686;23.300;2023-06-10T04:56:03;94336.97;;;25.54;43.81
43217;BME280;60511;42.686;23.300;2023-06-10T04:58:04;94344.31;;;25.54;43.83
43217;BME280;60511;42.686;23.300;2023-06-10T05:00:04;94342.81;;;25.56;43.62
43217;BME280;60511;42.686;23.300;2023-06-10T05:02:06;94337.78;;;25.58;43.74
43217;BME280;60511;42.686;23.300;2023-06-10T05:04:06;94329.66;;;25.58;43.24
43217;BME280;60511;42.686;23.300;2023-06-10T05:06:07;94335.84;;;25.59;43.32
43217;BME280;60511;42.686;23.300;2023-06-10T05:08:07;94334.72;;;25.63;42.76
43217;BME280;60511;42.686;23.300;2023-06-10T05:10:08;94341.31;;;25.62;43.45
43217;BME280;60511;42.686;23.300;2023-06-10T05:12:09;94340.19;;;25.67;42.96
43217;BME280;60511;42.686;23.300;2023-06-10T05:14:09;94334.75;;;25.67;42.78
43217;BME280;60511;42.686;23.300;2023-06-10T05:16:09;94337.81;;;25.62;44.03
43217;BME280;60511;42.686;23.300;2023-06-10T05:18:10;94344.38;;;25.61;43.84
43217;BME280;60511;42.686;23.300;2023-06-10T05:20:12;94334.72;;;25.63;42.62
43217;BME280;60511;42.686;23.300;2023-06-10T05:22:14;94335.50;;;25.60;43.79
43217;BME280;60511;42.686;23.300;2023-06-10T05:24:16;94330.84;;;25.61;43.88
43217;BME280;60511;42.686;23.300;2023-06-10T05:26:16;94331.19;;;25.59;42.71
43217;BME280;60511;42.686;23.300;2023-06-10T05:28:17;94336.66;;;25.63;44.05
43217;BME280;60511;42.686;23.300;2023-06-10T05:30:18;94340.56;;;25.65;43.06
43217;BME280;60511;42.686;23.300;2023-06-10T05:32:18;94337.84;;;25.65;44.42
43217;BME280;60511;42.686;23.300;2023-06-10T05:34:19;94341.31;;;25.62;44.55
43217;BME280;60511;42.686;23.300;2023-06-10T05:36:19;94346.28;;;25.57;44.67
43217;BME280;60511;42.686;23.300;2023-06-10T05:38:20;94337.00;;;25.58;44.70
43217;BME280;60511;42.686;23.300;2023-06-10T05:40:20;94351.75;;;25.60;44.22
43217;BME280;60511;42.686;23.300;2023-06-10T05:42:20;94342.09;;;25.63;44.18
43217;BME280;60511;42.686;23.300;2023-06-10T05:44:21;94342.50;;;25.65;44.00
43217;BME280;60511;42.686;23.300;2023-06-10T05:46:21;94338.59;;;25.62;43.63
43217;BME280;60511;42.686;23.300;2023-06-10T05:48:21;94342.09;;;25.63;43.75
43217;BME280;60511;42.686;23.300;2023-06-10T05:50:23;94344.03;;;25.62;43.52
43217;BME280;60511;42.686;23.300;2023-06-10T05:52:24;94345.94;;;25.62;43.54
43217;BME280;60511;42.686;23.300;2023-06-10T05:54:25;94345.53;;;25.60;44.13
43217;BME280;60511;42.686;23.300;2023-06-10T05:56:25;94345.59;;;25.67;43.55
43217;BME280;60511;42.686;23.300;2023-06-10T05:58:26;94352.97;;;25.66;43.72
43217;BME280;60511;42.686;23.300;2023-06-10T06:00:26;94346.38;;;25.67;43.44
43217;BME280;60511;42.686;23.300;2023-06-10T06:02:27;94355.28;;;25.64;43.44
43217;BME280;60511;42.686;23.300;2023-06-10T06:04:27;94351.75;;;25.60;43.73
43217;BME280;60511;42.686;23.300;2023-06-10T06:06:27;94351.78;;;25.67;43.22
43217;BME280;60511;42.686;23.300;2023-06-10T06:08:28;94353.66;;;25.60;43.62
43217;BME280;60511;42.686;23.300;2023-06-10T06:10:28;94352.53;;;25.61;43.03
43217;BME280;60511;42.686;23.300;2023-06-10T06:12:28;94347.47;;;25.59;43.44
43217;BME280;60511;42.686;23.300;2023-06-10T06:14:30;94348.63;;;25.58;43.15
43217;BME280;60511;42.686;23.300;2023-06-10T06:16:31;94344.78;;;25.63;43.43
43217;BME280;60511;42.686;23.300;2023-06-10T06:18:32;94347.53;;;25.66;43.23
43217;BME280;60511;42.686;23.300;2023-06-10T06:20:33;94354.09;;;25.65;43.38
43217;BME280;60511;42.686;23.300;2023-06-10T06:22:33;94350.25;;;25.70;43.29
43217;BME280;60511;42.686;23.300;2023-06-10T06:24:34;94353.00;;;25.74;43.26
43217;BME280;60511;42.686;23.300;2023-06-10T06:26:34;94349.91;;;25.72;43.38
43217;BME280;60511;42.686;23.300;2023-06-10T06:28:35;94356.88;;;25.73;43.17
43217;BME280;60511;42.686;23.300;2023-06-10T06:30:35;94355.31;;;25.72;43.41
43217;BME280;60511;42.686;23.300;2023-06-10T06:32:35;94358.44;;;25.74;43.43
43217;BME280;60511;42.686;23.300;2023-06-10T06:34:36;94361.91;;;25.74;43.40
43217;BME280;60511;42.686;23.300;2023-06-10T06:36:36;94360.78;;;25.75;43.23
43217;BME280;60511;42.686;23.300;2023-06-10T06:38:38;94360.75;;;25.72;42.80
43217;BME280;60511;42.686;23.300;2023-06-10T06:40:38;94358.03;;;25.72;43.31
43217;BME280;60511;42.686;23.300;2023-06-10T06:42:38;94354.19;;;25.73;42.84
43217;BME280;60511;42.686;23.300;2023-06-10T06:44:38;94348.34;;;25.74;43.44
43217;BME280;60511;42.686;23.300;2023-06-10T06:46:39;94345.28;;;25.76;43.29
43217;BME280;60511;42.686;23.300;2023-06-10T06:48:39;94341.03;;;25.78;43.14
43217;BME280;60511;42.686;23.300;2023-06-10T06:50:39;94345.28;;;25.76;42.94
43217;BME280;60511;42.686;23.300;2023-06-10T06:52:41;94344.06;;;25.70;43.61
43217;BME280;60511;42.686;23.300;2023-06-10T06:54:42;94349.03;;;25.64;43.71
43217;BME280;60511;42.686;23.300;2023-06-10T06:56:42;94344.03;;;25.66;43.51
43217;BME280;60511;42.686;23.300;2023-06-10T06:58:42;94338.66;;;25.70;43.74
43217;BME280;60511;42.686;23.300;2023-06-10T07:00:42;94342.94;;;25.74;43.56
43217;BME280;60511;42.686;23.300;2023-06-10T07:02:43;94343.75;;;25.78;43.15
43217;BME280;60511;42.686;23.300;2023-06-10T07:04:43;94340.28;;;25.78;43.43
43217;BME280;60511;42.686;23.300;2023-06-10T07:06:44;94337.97;;;25.80;43.14
43217;BME280;60511;42.686;23.300;2023-06-10T07:08:44;94334.47;;;25.79;43.28
43217;BME280;60511;42.686;23.300;2023-06-10T07:10:44;94334.13;;;25.81;43.05
43217;BME280;60511;42.686;23.300;2023-06-10T07:12:45;94331.81;;;25.83;43.15
43217;BME280;60511;42.686;23.300;2023-06-10T07:14:45;94336.84;;;25.84;42.85
43217;BME280;60511;42.686;23.300;2023-06-10T07:16:45;94331.41;;;25.84;42.91
43217;BME280;60511;42.686;23.300;2023-06-10T07:18:48;94331.44;;;25.88;43.03
43217;BME280;60511;42.686;23.300;2023-06-10T07:20:49;94328.03;;;25.91;42.56
43217;BME280;60511;42.686;23.300;2023-06-10T07:22:50;94324.88;;;25.89;42.70
43217;BME280;60511;42.686;23.300;2023-06-10T07:24:50;94328.03;;;25.91;42.62
43217;BME280;60511;42.686;23.300;2023-06-10T07:26:51;94324.91;;;25.93;42.40
43217;BME280;60511;42.686;23.300;2023-06-10T07:28:52;94330.31;;;25.89;41.97
43217;BME280;60511;42.686;23.300;2023-06-10T07:30:52;94328.03;;;25.91;41.72
43217;BME280;60511;42.686;23.300;2023-06-10T07:32:52;94330.31;;;25.89;41.20
43217;BME280;60511;42.686;23.300;2023-06-10T07:34:53;94322.19;;;25.93;41.24
43217;BME280;60511;42.686;23.300;2023-06-10T07:36:53;94325.72;;;25.93;41.38
43217;BME280;60511;42.686;23.300;2023-06-10T07:38:54;94328.84;;;25.95;41.40
43217;BME280;60511;42.686;23.300;2023-06-10T07:40:54;94336.19;;;25.98;41.41
43217;BME280;60511;42.686;23.300;2023-06-10T07:42:55;94323.41;;;25.95;41.55
43217;BME280;60511;42.686;23.300;2023-06-10T07:44:55;94326.13;;;25.95;41.51
43217;BME280;60511;42.686;23.300;2023-06-10T07:46:56;94326.13;;;25.95;41.32
43217;BME280;60511;42.686;23.300;2023-06-10T07:48:57;94326.50;;;25.94;41.27
43217;BME280;60511;42.686;23.300;2023-06-10T07:50:58;94318.75;;;25.96;41.00
43217;BME280;60511;42.686;23.300;2023-06-10T07:52:58;94319.56;;;26.00;41.00
43217;BME280;60511;42.686;23.300;2023-06-10T07:54:59;94326.53;;;25.97;40.15
43217;BME280;60511;42.686;23.300;2023-06-10T07:56:59;94324.59;;;25.98;40.36
43217;BME280;60511;42.686;23.300;2023-06-10T07:58:59;94324.63;;;26.01;40.46
43217;BME280;60511;42.686;23.300;2023-06-10T08:01:01;94321.91;;;26.01;40.31
43217;BME280;60511;42.686;23.300;2023-06-10T08:03:01;94326.53;;;26.01;40.01
43217;BME280;60511;42.686;23.300;2023-06-10T08:05:01;94321.16;;;26.08;39.98
43217;BME280;60511;42.686;23.300;2023-06-10T08:07:02;94321.94;;;26.09;40.46
43217;BME280;60511;42.686;23.300;2023-06-10T08:09:03;94321.56;;;26.10;40.41
43217;BME280;60511;42.686;23.300;2023-06-10T08:11:03;94317.31;;;26.13;40.19
43217;BME280;60511;42.686;23.300;2023-06-10T08:13:04;94315.78;;;26.12;39.77
43217;BME280;60511;42.686;23.300;2023-06-10T08:15:05;94316.19;;;26.14;39.80
43217;BME280;60511;42.686;23.300;2023-06-10T08:17:05;94310.34;;;26.15;40.07
43217;BME280;60511;42.686;23.300;2023-06-10T08:19:06;94311.16;;;26.16;39.95
43217;BME280;60511;42.686;23.300;2023-06-10T08:21:10;94310.34;;;26.15;40.11
43217;BME280;60511;42.686;23.300;2023-06-10T08:23:10;94304.13;;;26.11;39.34
43217;BME280;60511;42.686;23.300;2023-06-10T08:25:10;94299.50;;;26.12;39.14
43217;BME280;60511;42.686;23.300;2023-06-10T08:27:11;94297.19;;;26.17;39.53
43217;BME280;60511;42.686;23.300;2023-06-10T08:29:11;94296.84;;;26.22;39.63
43217;BME280;60511;42.686;23.300;2023-06-10T08:31:12;94292.97;;;26.23;39.76
43217;BME280;60511;42.686;23.300;2023-06-10T08:33:12;94296.84;;;26.22;39.67
43217;BME280;60511;42.686;23.300;2023-06-10T08:35:12;94298.78;;;26.22;39.36
43217;BME280;60511;42.686;23.300;2023-06-10T08:37:13;94294.16;;;26.26;39.34
43217;BME280;60511;42.686;23.300;2023-06-10T08:39:13;94289.91;;;26.29;39.29
43217;BME280;60511;42.686;23.300;2023-06-10T08:41:14;94294.19;;;26.30;39.48
43217;BME280;60511;42.686;23.300;2023-06-10T08:43:18;94289.94;;;26.32;39.66
43217;BME280;60511;42.686;23.300;2023-06-10T08:45:21;94288.34;;;26.31;39.67
43217;BME280;60511;42.686;23.300;2023-06-10T08:47:24;94291.47;;;26.33;39.60
43217;BME280;60511;42.686;23.300;2023-06-10T08:49:25;94285.69;;;26.35;39.44
43217;BME280;60511;42.686;23.300;2023-06-10T08:51:26;94281.78;;;26.32;39.26
43217;BME280;60511;42.686;23.300;2023-06-10T08:53:27;94283.34;;;26.33;39.39
43217;BME280;60511;42.686;23.300;2023-06-10T08:55:30;94277.53;;;26.35;39.49
43217;BME280;60511;42.686;23.300;2023-06-10T08:57:32;94270.97;;;26.36;39.22
43217;BME280;60511;42.686;23.300;2023-06-10T08:59:32;94273.66;;;26.39;38.67
43217;BME280;60511;42.686;23.300;2023-06-10T09:01:32;94274.88;;;26.42;38.94
43217;BME280;60511;42.686;23.300;2023-06-10T09:03:33;94275.63;;;26.39;37.99
43217;BME280;60511;42.686;23.300;2023-06-10T09:05:35;94272.16;;;26.42;38.34
43217;BME280;60511;42.686;23.300;2023-06-10T09:07:36;94276.41;;;26.43;38.64
43217;BME280;60511;42.686;23.300;2023-06-10T09:09:37;94272.94;;;26.42;37.71
43217;BME280;60511;42.686;23.300;2023-06-10T09:11:38;94267.88;;;26.41;38.55
43217;BME280;60511;42.686;23.300;2023-06-10T09:13:38;94270.19;;;26.39;38.92
43217;BME280;60511;42.686;23.300;2023-06-10T09:15:38;94269.41;;;26.38;38.66
43217;BME280;60511;42.686;23.300;2023-06-10T09:17:41;94265.13;;;26.37;37.83
43217;BME280;60511;42.686;23.300;2023-06-10T09:19:42;94263.16;;;26.27;37.31
43217;BME280;60511;42.686;23.300;2023-06-10T09:21:44;94270.50;;;26.26;36.75
43217;BME280;60511;42.686;23.300;2023-06-10T09:23:44;94261.25;;;26.35;36.94
43217;BME280;60511;42.686;23.300;2023-06-10T09:25:45;94264.00;;;26.42;36.94
43217;BME280;60511;42.686;23.300;2023-06-10T09:27:50;94265.94;;;26.41;38.04
43217;BME280;60511;42.686;23.300;2023-06-10T09:29:51;94259.72;;;26.41;38.04
43217;BME280;60511;42.686;23.300;2023-06-10T09:31:51;94254.34;;;26.52;37.02
43217;BME280;60511;42.686;23.300;2023-06-10T09:33:52;94255.97;;;26.60;37.31
43217;BME280;60511;42.686;23.300;2023-06-10T09:35:53;94259.50;;;26.71;37.21
43217;BME280;60511;42.686;23.300;2023-06-10T09:37:57;94254.88;;;26.79;36.69
43217;BME280;60511;42.686;23.300;2023-06-10T09:40:05;94250.22;;;26.79;37.22
43217;BME280;60511;42.686;23.300;2023-06-10T09:42:16;94240.53;;;26.85;37.18
43217;BME280;60511;42.686;23.300;2023-06-10T09:44:19;94241.31;;;26.90;37.25
43217;BME280;60511;42.686;23.300;2023-06-10T09:46:20;94243.66;;;26.88;36.97
43217;BME280;60511;42.686;23.300;2023-06-10T09:48:20;94237.44;;;26.94;36.97
43217;BME280;60511;42.686;23.300;2023-06-10T09:50:20;94245.22;;;26.96;36.86
43217;BME280;60511;42.686;23.300;2023-06-10T09:52:24;94242.91;;;27.01;36.40
43217;BME280;60511;42.686;23.300;2023-06-10T09:54:25;94239.03;;;27.02;36.68
43217;BME280;60511;42.686;23.300;2023-06-10T09:56:34;94235.13;;;27.07;36.38
43217;BME280;60511;42.686;23.300;2023-06-10T09:58:38;94230.88;;;27.06;36.60
43217;BME280;60511;42.686;23.300;2023-06-10T10:00:39;94223.91;;;27.01;37.07
43217;BME280;60511;42.686;23.300;2023-06-10T10:04:48;94226.25;;;27.14;36.61
43217;BME280;60511;42.686;23.300;2023-06-10T10:06:49;94219.28;;;27.20;36.40
43217;BME280;60511;42.686;23.300;2023-06-10T10:08:50;94223.91;;;27.16;36.61
43217;BME280;60511;42.686;23.300;2023-06-10T10:10:50;94227.38;;;27.09;37.01
43217;BME280;60511;42.686;23.300;2023-06-10T10:12:52;94216.13;;;27.11;36.25
43217;BME280;60511;42.686;23.300;2023-06-10T10:14:54;94214.19;;;27.15;36.43
43217;BME280;60511;42.686;23.300;2023-06-10T10:16:55;94210.31;;;27.12;36.06
43217;BME280;60511;42.686;23.300;2023-06-10T10:19:00;94203.72;;;27.10;35.84
43217;BME280;60511;42.686;23.300;2023-06-10T10:21:04;94211.50;;;27.18;36.21
43217;BME280;60511;42.686;23.300;2023-06-10T10:23:05;94203.34;;;27.22;36.12
43217;BME280;60511;42.686;23.300;2023-06-10T10:25:12;94211.94;;;27.24;36.21
43217;BME280;60511;42.686;23.300;2023-06-10T10:27:16;94212.25;;;27.15;36.73
43217;BME280;60511;42.686;23.300;2023-06-10T10:31:23;94202.97;;;27.16;36.45
43217;BME280;60511;42.686;23.300;2023-06-10T10:35:27;94207.22;;;27.10;36.63
43217;BME280;60511;42.686;23.300;2023-06-10T10:37:27;94204.13;;;27.12;36.49
43217;BME280;60511;42.686;23.300;2023-06-10T10:39:28;94201.78;;;27.17;36.15